Time;durP1;ratioP1;P1;durP2;ratioP2;P2;SDS_P1;SDS_P2;PMS_P1;PMS_P2;Temp;Humidity;BMP_temperature;BMP_pressure;BME280_temperature;BME280_humidity;BME280_pressure;Samples;Min_cycle;Max_cycle;Signal;HPM_P1;HPM_P2
2022/03/31 00:00:50;;;;;;;20.38;16.52;;;;;;;7.36;77.06;99416.63;4901967;29;20067;-80
2022/03/31 00:03:19;;;;;;;24.95;15.73;;;;;;;7.38;74.17;99419.88;4914198;29;20472;-79
2022/03/31 00:05:47;;;;;;;26.17;15.73;;;;;;;7.38;75.94;99412.06;4922089;29;20056;-79
2022/03/31 00:08:15;;;;;;;20.65;15.77;;;;;;;7.26;74.98;99410.78;4909708;29;20048;-78
2022/03/31 00:10:44;;;;;;;20.60;16.30;;;;;;;7.32;77.09;99412.72;4914530;29;20060;-79
2022/03/31 00:13:12;;;;;;;22.35;15.57;;;;;;;7.22;75.71;99412.09;4913603;29;20128;-81
2022/03/31 00:15:39;;;;;;;26.77;16.75;;;;;;;7.29;77.05;99418.25;4904791;29;20053;-80
2022/03/31 00:18:08;;;;;;;27.35;18.48;;;;;;;7.16;76.83;99407.53;4918126;29;20044;-79
2022/03/31 00:34:03;;;;;;;23.95;16.23;;;;;;;7.16;75.79;99402.31;4906443;29;20081;-81
2022/03/31 00:36:30;;;;;;;24.60;16.23;;;;;;;7.15;76.92;99405.91;4917305;29;20054;-82
2022/03/31 00:41:40;;;;;;;27.70;18.23;;;;;;;6.98;76.38;99400.72;4906961;29;20074;-81
2022/03/31 00:44:08;;;;;;;26.08;17.15;;;;;;;7.03;77.75;99402.03;4917388;29;20048;-78
2022/03/31 00:46:35;;;;;;;27.05;17.77;;;;;;;6.94;77.87;99394.22;4908686;29;20051;-80
2022/03/31 00:49:03;;;;;;;24.05;18.48;;;;;;;6.92;78.08;99390.16;4912085;29;20510;-79
2022/03/31 00:51:31;;;;;;;25.73;18.38;;;;;;;7.03;79.54;99381.22;4916698;29;20102;-80
2022/03/31 00:53:58;;;;;;;23.52;16.88;;;;;;;6.97;79.57;99378.31;4907852;29;20052;-80
2022/03/31 00:56:25;;;;;;;29.83;17.17;;;;;;;6.92;79.18;99375.38;4916645;29;20189;-79
2022/03/31 00:58:53;;;;;;;27.27;18.10;;;;;;;6.87;79.93;99375.03;4910270;29;20127;-79
2022/03/31 01:01:20;;;;;;;27.05;18.63;;;;;;;6.76;80.91;99364.97;4909751;29;20059;-81
2022/03/31 01:03:47;;;;;;;28.67;18.15;;;;;;;6.83;81.03;99363.34;4916326;29;20048;-80
2022/03/31 01:06:16;;;;;;;29.70;18.63;;;;;;;6.81;81.06;99367.88;4902718;29;20439;-79
2022/03/31 01:08:43;;;;;;;23.58;18.65;;;;;;;6.97;80.95;99367.91;4913065;29;20066;-80
2022/03/31 01:11:10;;;;;;;25.58;17.88;;;;;;;6.98;80.15;99358.31;4909716;29;20501;-80
2022/03/31 01:13:37;;;;;;;27.85;18.98;;;;;;;7.01;81.23;99362.38;4914624;29;20052;-79
2022/03/31 01:16:03;;;;;;;28.45;18.65;;;;;;;6.94;81.46;99360.41;4901620;29;20088;-78
2022/03/31 01:18:30;;;;;;;26.27;18.50;;;;;;;6.90;82.87;99360.91;4910177;29;20048;-79
2022/03/31 01:20:57;;;;;;;30.63;19.70;;;;;;;6.92;83.04;99351.97;4908567;29;20048;-78
2022/03/31 01:23:26;;;;;;;29.52;19.40;;;;;;;7.00;82.10;99348.56;4907650;29;20060;-79
2022/03/31 01:25:53;;;;;;;27.55;19.48;;;;;;;6.91;82.50;99342.53;4915799;29;20056;-79
2022/03/31 01:28:20;;;;;;;27.85;20.13;;;;;;;6.87;82.22;99335.22;4903418;29;20108;-78
2022/03/31 01:30:47;;;;;;;26.55;19.95;;;;;;;6.75;82.41;99342.53;4912283;29;20048;-78
2022/03/31 01:33:14;;;;;;;28.50;19.42;;;;;;;6.74;82.30;99345.31;4912317;29;20056;-79
2022/03/31 01:35:41;;;;;;;31.27;20.55;;;;;;;6.70;83.22;99344.81;4904216;29;20081;-80
2022/03/31 01:38:08;;;;;;;27.77;20.20;;;;;;;6.75;83.39;99337.34;4914052;29;20145;-79
2022/03/31 01:40:36;;;;;;;37.88;20.45;;;;;;;6.77;83.89;99339.78;4902580;29;20047;-78
2022/03/31 01:43:03;;;;;;;28.52;20.50;;;;;;;6.74;84.20;99342.69;4909954;29;20084;-78
2022/03/31 01:45:30;;;;;;;29.35;20.73;;;;;;;6.74;84.68;99335.72;4915585;29;20111;-79
2022/03/31 01:47:57;;;;;;;31.33;21.05;;;;;;;6.76;84.59;99332.94;4907151;29;20108;-78
2022/03/31 01:50:24;;;;;;;28.50;20.92;;;;;;;6.80;85.22;99337.66;4923862;29;20055;-78
2022/03/31 01:52:51;;;;;;;33.92;21.92;;;;;;;6.68;85.95;99336.34;4913228;29;20113;-78
2022/03/31 01:55:18;;;;;;;31.30;22.50;;;;;;;6.66;85.34;99333.09;4909819;29;20052;-78
2022/03/31 01:57:46;;;;;;;32.67;23.67;;;;;;;6.64;85.65;99329.84;4918781;29;20115;-77
2022/03/31 02:00:13;;;;;;;33.63;22.77;;;;;;;6.65;85.37;99318.50;4918985;29;20427;-78
2022/03/31 02:02:40;;;;;;;35.03;23.02;;;;;;;6.70;85.15;99329.22;4899077;29;20056;-79
2022/03/31 02:05:07;;;;;;;33.25;22.95;;;;;;;6.74;86.12;99319.31;4909019;29;20433;-78
2022/03/31 02:07:36;;;;;;;34.75;24.50;;;;;;;6.79;86.28;99325.63;4905431;29;20056;-79
2022/03/31 02:10:03;;;;;;;42.38;25.73;;;;;;;6.80;86.65;99331.66;4908875;29;20048;-81
2022/03/31 02:12:30;;;;;;;38.20;23.80;;;;;;;6.76;86.64;99310.38;4903947;29;20124;-82
2022/03/31 02:14:58;;;;;;;36.92;25.35;;;;;;;6.77;87.07;99322.38;4908163;29;20084;-81
2022/03/31 02:17:25;;;;;;;42.20;24.63;;;;;;;6.76;87.26;99315.56;4901327;29;20056;-80
2022/03/31 02:19:51;;;;;;;34.08;24.33;;;;;;;6.68;88.27;99307.78;4900038;29;20498;-81
2022/03/31 02:22:18;;;;;;;37.13;24.42;;;;;;;6.67;87.38;99306.16;4901376;29;20131;-82
2022/03/31 02:24:45;;;;;;;35.63;25.15;;;;;;;6.63;87.51;99307.44;4901492;29;20506;-81
2022/03/31 02:27:15;;;;;;;36.58;24.95;;;;;;;6.61;88.05;99293.81;4901097;29;20053;-82
2022/03/31 02:29:41;;;;;;;33.97;24.33;;;;;;;6.70;88.05;99300.63;4900250;29;20517;-82
2022/03/31 02:32:10;;;;;;;33.75;23.25;;;;;;;6.70;88.28;99295.41;4900668;29;20482;-81
2022/03/31 02:34:36;;;;;;;42.80;23.58;;;;;;;6.81;87.33;99289.09;4901843;29;20127;-80
2022/03/31 02:37:04;;;;;;;38.58;23.95;;;;;;;6.63;87.38;99282.25;4901086;29;20139;-81
2022/03/31 02:39:31;;;;;;;37.88;24.58;;;;;;;6.63;87.48;99287.47;4900945;29;20048;-81
2022/03/31 02:42:00;;;;;;;44.85;24.98;;;;;;;6.68;86.63;99289.56;4901688;29;20139;-80
2022/03/31 02:44:27;;;;;;;38.00;23.15;;;;;;;6.65;86.66;99288.09;4901702;29;20077;-79
2022/03/31 02:46:54;;;;;;;41.05;24.48;;;;;;;6.66;88.02;99286.31;4900900;29;20131;-82
2022/03/31 02:49:22;;;;;;;37.25;23.52;;;;;;;6.71;86.91;99288.44;4902055;29;20087;-81
2022/03/31 02:51:48;;;;;;;37.70;23.83;;;;;;;6.68;87.51;99284.38;4902283;29;20088;-79
2022/03/31 02:57:02;;;;;;;38.90;23.98;;;;;;;6.76;88.05;99286.16;4901449;29;20562;-80
2022/03/31 02:59:30;;;;;;;39.47;24.23;;;;;;;6.78;88.97;99284.22;4900131;29;20060;-79
2022/03/31 03:01:58;;;;;;;42.83;26.73;;;;;;;6.75;89.62;99284.53;4898660;29;20059;-78
2022/03/31 03:04:28;;;;;;;38.83;25.95;;;;;;;6.66;89.74;99287.13;4899512;29;20108;-79
2022/03/31 03:06:55;;;;;;;44.15;26.33;;;;;;;6.60;88.90;99282.63;4899511;29;20445;-80
2022/03/31 03:09:22;;;;;;;43.30;26.60;;;;;;;6.67;89.08;99280.16;4900146;29;20095;-79
2022/03/31 03:11:49;;;;;;;42.47;26.05;;;;;;;6.56;89.14;99267.50;4900751;29;20113;-80
2022/03/31 03:14:15;;;;;;;40.42;25.45;;;;;;;6.61;89.76;99289.44;4900739;29;20088;-82
2022/03/31 03:16:42;;;;;;;46.67;26.83;;;;;;;6.58;89.41;99281.97;4900975;29;20119;-82
2022/03/31 03:19:09;;;;;;;43.97;27.98;;;;;;;6.48;90.23;99280.50;4900009;29;20140;-82
2022/03/31 03:21:37;;;;;;;42.28;26.45;;;;;;;6.51;90.40;99277.56;4900893;29;20112;-81
2022/03/31 03:24:04;;;;;;;51.03;27.45;;;;;;;6.51;90.67;99278.38;4900722;29;20448;-82
2022/03/31 03:26:31;;;;;;;44.08;27.60;;;;;;;6.40;91.24;99270.91;4900926;29;20091;-81
2022/03/31 03:28:58;;;;;;;44.83;27.65;;;;;;;6.37;92.09;99278.22;4899178;29;20303;-79
2022/03/31 03:31:25;;;;;;;48.05;29.13;;;;;;;6.26;92.04;99274.97;4900561;29;20052;-79
2022/03/31 03:33:51;;;;;;;44.03;27.17;;;;;;;6.31;92.12;99264.91;4899879;29;20584;-79
2022/03/31 03:36:18;;;;;;;50.20;29.33;;;;;;;6.29;92.39;99269.44;4901343;29;20067;-80
2022/03/31 03:38:47;;;;;;;47.92;27.80;;;;;;;6.29;92.72;99274.63;4901851;29;20084;-79
2022/03/31 03:41:14;;;;;;;47.90;28.40;;;;;;;6.20;93.11;99269.59;4903586;29;20053;-80
2022/03/31 03:43:42;;;;;;;48.38;29.23;;;;;;;6.25;92.64;99272.53;4904066;29;20087;-81
2022/03/31 03:46:08;;;;;;;48.13;28.67;;;;;;;6.14;93.51;99265.88;4903729;29;20088;-79
2022/03/31 03:48:35;;;;;;;50.42;30.40;;;;;;;6.22;94.29;99278.84;4903784;29;20090;-82
2022/03/31 03:51:02;;;;;;;45.05;28.42;;;;;;;6.20;93.82;99273.00;4903566;29;20155;-79
2022/03/31 03:53:28;;;;;;;49.80;29.20;;;;;;;6.27;93.83;99270.56;4904062;29;20053;-81
2022/03/31 03:55:57;;;;;;;47.10;30.40;;;;;;;6.29;94.12;99268.63;4904365;29;20083;-79
2022/03/31 03:58:23;;;;;;;47.47;29.45;;;;;;;6.32;94.56;99274.31;4904769;29;20209;-79
2022/03/31 04:00:50;;;;;;;50.17;29.83;;;;;;;6.26;94.36;99274.16;4903787;29;20144;-79
2022/03/31 04:03:17;;;;;;;48.00;27.63;;;;;;;6.15;94.27;99267.47;4900458;29;20490;-80
2022/03/31 04:05:44;;;;;;;50.58;30.00;;;;;;;6.17;94.76;99268.13;4903013;29;20136;-80
2022/03/31 04:08:11;;;;;;;46.42;28.15;;;;;;;6.15;94.54;99264.06;4903222;29;20052;-79
2022/03/31 04:10:37;;;;;;;48.47;29.08;;;;;;;6.22;94.40;99268.47;4903337;29;20124;-80
2022/03/31 04:13:05;;;;;;;52.83;30.55;;;;;;;6.15;94.12;99267.47;4905106;29;20476;-79
2022/03/31 04:15:32;;;;;;;48.97;29.73;;;;;;;6.12;94.28;99265.22;4903485;29;20496;-80
2022/03/31 04:17:59;;;;;;;50.78;29.15;;;;;;;6.08;94.31;99269.13;4903045;29;20496;-79
2022/03/31 04:20:26;;;;;;;46.85;28.38;;;;;;;6.12;93.67;99270.41;4902309;29;20061;-78
2022/03/31 04:22:52;;;;;;;47.22;28.50;;;;;;;6.09;93.21;99262.13;4902968;29;20056;-78
2022/03/31 04:25:19;;;;;;;51.20;28.27;;;;;;;6.22;93.62;99268.47;4902120;29;20116;-78
2022/03/31 04:27:46;;;;;;;42.15;26.27;;;;;;;6.12;93.17;99267.81;4901727;29;20067;-79
2022/03/31 04:30:18;;;;;;;45.58;27.02;;;;;;;6.21;92.54;99259.03;4901011;29;20098;-77
2022/03/31 04:32:45;;;;;;;45.58;27.20;;;;;;;6.16;92.95;99263.91;4901909;29;20052;-79
2022/03/31 04:35:11;;;;;;;42.67;26.75;;;;;;;6.11;93.24;99253.22;4901853;29;20600;-79
2022/03/31 04:37:41;;;;;;;41.92;26.58;;;;;;;6.18;93.74;99256.75;4954098;23;20519;-82
2022/03/31 04:40:14;;;;;;;49.45;27.35;;;;;;;6.18;93.25;99261.16;4944238;29;20051;-82
2022/03/31 04:42:46;;;;;;;51.22;27.80;;;;;;;5.93;93.45;99249.94;4950202;29;20571;-81
2022/03/31 04:45:22;;;;;;;46.58;26.80;;;;;;;6.05;93.93;99266.03;4967279;29;20508;-81
2022/03/31 04:51:58;;;;;;;48.67;28.33;;;;;;;5.92;94.44;99245.72;4864254;29;20057;-83
2022/03/31 04:54:25;;;;;;;47.97;27.48;;;;;;;6.00;94.44;99263.91;4880356;29;20063;-82
2022/03/31 05:06:50;;;;;;;43.08;26.77;;;;;;;5.83;93.15;99257.00;4826860;29;20066;-81
2022/03/31 05:10:18;;;;;;;48.50;27.30;;;;;;;5.71;93.37;99242.72;4880047;29;20049;-84
2022/03/31 05:16:09;;;;;;;42.40;26.48;;;;;;;5.77;92.47;99255.06;4838187;29;20062;-82
2022/03/31 05:18:51;;;;;;;45.90;27.27;;;;;;;5.85;92.80;99255.06;4896006;29;20052;-83
2022/03/31 05:33:21;;;;;;;36.22;23.15;;;;;;;5.66;89.82;99249.22;5335452;23;20417;-84
2022/03/31 05:48:41;;;;;;;41.92;23.65;;;;;;;5.53;89.97;99250.63;4937940;29;20052;-81
2022/03/31 05:51:08;;;;;;;41.35;23.08;;;;;;;5.49;90.19;99249.31;4924928;29;20079;-81
2022/03/31 05:53:34;;;;;;;38.80;23.90;;;;;;;5.50;90.79;99256.94;4923941;29;20060;-83
2022/03/31 05:56:01;;;;;;;44.83;24.38;;;;;;;5.47;90.20;99248.66;4923505;29;20520;-83
2022/03/31 05:58:28;;;;;;;36.97;22.40;;;;;;;5.54;91.59;99241.88;4901340;29;20131;-84
2022/03/31 06:00:54;;;;;;;44.75;24.15;;;;;;;5.50;91.63;99250.94;4900504;29;20116;-85
2022/03/31 06:03:23;;;;;;;40.13;24.27;;;;;;;5.48;91.17;99253.69;4899769;29;20056;-85
2022/03/31 06:05:51;;;;;;;37.47;22.63;;;;;;;5.50;91.30;99249.16;4901291;29;20067;-85
2022/03/31 06:08:18;;;;;;;38.00;21.77;;;;;;;5.49;91.20;99252.72;4902860;29;20131;-84
2022/03/31 06:10:44;;;;;;;43.13;21.75;;;;;;;5.49;91.41;99250.13;4917150;29;20052;-84
2022/03/31 06:13:12;;;;;;;38.83;23.83;;;;;;;5.38;91.08;99247.81;4913774;29;20334;-85
2022/03/31 06:15:38;;;;;;;38.83;22.65;;;;;;;5.51;90.71;99248.19;4905934;29;20090;-84
2022/03/31 06:18:06;;;;;;;39.80;23.27;;;;;;;5.44;90.91;99242.00;4904027;29;20108;-82
2022/03/31 06:20:34;;;;;;;43.97;23.90;;;;;;;5.43;90.97;99250.75;4904706;29;20052;-84
2022/03/31 06:23:02;;;;;;;43.72;24.98;;;;;;;5.48;92.42;99251.09;4908863;29;20064;-83
2022/03/31 06:25:29;;;;;;;42.35;23.25;;;;;;;5.63;91.59;99246.13;4923124;29;20556;-83
2022/03/31 06:27:56;;;;;;;42.30;22.98;;;;;;;5.66;91.74;99246.63;4919233;29;20067;-80
2022/03/31 06:30:23;;;;;;;40.83;24.08;;;;;;;5.59;90.54;99237.84;4922533;29;20135;-81
2022/03/31 06:32:50;;;;;;;41.38;23.67;;;;;;;5.76;91.53;99249.03;4922224;29;20469;-83
2022/03/31 06:35:16;;;;;;;39.00;22.17;;;;;;;5.71;91.42;99253.09;4921836;29;20135;-83
2022/03/31 06:37:44;;;;;;;34.22;21.45;;;;;;;5.78;90.97;99249.69;4921977;29;20095;-83
2022/03/31 06:40:14;;;;;;;40.38;23.80;;;;;;;5.63;91.52;99246.13;4922259;29;20131;-83
2022/03/31 06:42:45;;;;;;;38.20;23.00;;;;;;;5.78;91.35;99249.69;4921771;29;20054;-83
2022/03/31 06:45:15;;;;;;;38.22;22.60;;;;;;;5.82;90.90;99245.81;4923127;29;20112;-82
2022/03/31 06:47:42;;;;;;;37.78;21.90;;;;;;;5.95;89.93;99245.41;4921600;29;20127;-81
2022/03/31 06:50:10;;;;;;;37.45;21.27;;;;;;;5.96;89.76;99237.44;4920435;29;20162;-81
2022/03/31 06:52:37;;;;;;;42.95;21.95;;;;;;;5.87;90.07;99243.56;4922212;29;20079;-80
2022/03/31 06:55:05;;;;;;;41.72;22.35;;;;;;;6.06;89.20;99247.69;4922716;29;20131;-82
2022/03/31 06:57:32;;;;;;;33.08;20.83;;;;;;;6.02;88.40;99241.19;4924086;29;20159;-83
2022/03/31 07:00:00;;;;;;;38.17;21.23;;;;;;;5.95;89.94;99240.19;4922856;29;20098;-83
2022/03/31 07:02:26;;;;;;;37.45;20.60;;;;;;;6.16;89.93;99245.72;4922758;29;20095;-82
2022/03/31 07:04:53;;;;;;;36.63;21.30;;;;;;;6.27;89.23;99244.59;4922142;29;20088;-82
2022/03/31 07:07:20;;;;;;;35.92;20.80;;;;;;;6.37;88.31;99244.44;4922600;29;20116;-83
2022/03/31 07:09:47;;;;;;;37.33;20.42;;;;;;;6.46;88.68;99238.28;4922093;29;20082;-83
2022/03/31 07:12:14;;;;;;;35.63;19.30;;;;;;;6.12;85.54;99241.03;4927416;29;20131;-83
2022/03/31 07:14:43;;;;;;;31.13;20.15;;;;;;;6.18;86.91;99256.75;4926673;29;20063;-83
2022/03/31 07:17:11;;;;;;;34.92;19.70;;;;;;;6.18;88.22;99242.97;4926004;29;20112;-83
2022/03/31 07:19:38;;;;;;;32.70;18.98;;;;;;;6.06;87.26;99257.25;4924887;29;20052;-82
2022/03/31 07:22:05;;;;;;;34.17;19.35;;;;;;;6.09;89.25;99257.75;4926158;29;20496;-82
2022/03/31 07:24:32;;;;;;;32.05;19.73;;;;;;;5.94;88.37;99264.53;4926222;29;20048;-82
2022/03/31 07:26:58;;;;;;;35.08;21.05;;;;;;;6.00;87.88;99258.72;4929236;29;20102;-82
2022/03/31 07:29:25;;;;;;;33.72;19.63;;;;;;;6.12;86.51;99257.44;4925311;29;20142;-83
2022/03/31 07:31:56;;;;;;;30.98;19.33;;;;;;;6.19;85.80;99255.78;4925470;29;20669;-83
2022/03/31 07:34:23;;;;;;;31.58;19.75;;;;;;;6.16;88.92;99253.50;4925641;29;20060;-82
2022/03/31 07:36:53;;;;;;;35.35;19.73;;;;;;;6.05;88.88;99256.44;4925199;29;20103;-82
2022/03/31 07:39:20;;;;;;;33.33;19.88;;;;;;;6.11;87.38;99247.22;4924485;29;20048;-82
2022/03/31 07:41:47;;;;;;;34.13;19.58;;;;;;;6.18;89.01;99256.75;4924855;29;20085;-82
2022/03/31 07:44:13;;;;;;;37.00;21.15;;;;;;;6.25;88.19;99257.75;4924742;29;20131;-82
2022/03/31 07:46:40;;;;;;;33.22;21.15;;;;;;;6.41;89.02;99262.16;4923920;29;20142;-82
2022/03/31 07:49:08;;;;;;;35.45;20.58;;;;;;;6.32;86.40;99263.94;4924913;29;20543;-81
2022/03/31 07:51:35;;;;;;;36.50;19.38;;;;;;;6.16;88.31;99252.69;4924054;29;20054;-82
2022/03/31 07:54:02;;;;;;;32.92;20.40;;;;;;;6.20;88.18;99244.44;4924482;29;20199;-82
2022/03/31 07:56:29;;;;;;;35.92;20.63;;;;;;;6.25;87.21;99257.75;4925409;29;20044;-82
2022/03/31 07:58:55;;;;;;;33.80;20.40;;;;;;;6.37;88.61;99247.84;4925048;29;20044;-83
2022/03/31 08:01:22;;;;;;;32.33;20.40;;;;;;;6.27;87.27;99247.19;4924551;29;20075;-82
2022/03/31 08:03:49;;;;;;;35.25;19.05;;;;;;;6.41;85.67;99246.56;4924570;29;20094;-82
2022/03/31 08:06:17;;;;;;;32.45;19.60;;;;;;;6.29;87.14;99234.84;4924482;29;20131;-82
2022/03/31 08:08:43;;;;;;;34.65;19.65;;;;;;;6.38;87.42;99246.06;4925327;29;20052;-81
2022/03/31 08:11:10;;;;;;;29.75;19.00;;;;;;;6.24;85.79;99248.34;4924690;29;20313;-82
2022/03/31 08:13:37;;;;;;;31.70;19.42;;;;;;;6.28;85.56;99249.63;4925824;29;20083;-82
2022/03/31 08:16:05;;;;;;;32.28;19.35;;;;;;;6.28;88.13;99251.41;4925504;29;20083;-82
2022/03/31 08:18:34;;;;;;;32.85;19.27;;;;;;;6.24;87.36;99240.53;4923687;29;20052;-81
2022/03/31 08:21:01;;;;;;;36.97;19.90;;;;;;;6.40;85.80;99238.94;4923570;29;20044;-82
2022/03/31 08:23:30;;;;;;;29.77;19.48;;;;;;;6.29;87.21;99247.84;4925912;29;20055;-79
2022/03/31 08:26:02;;;;;;;32.97;19.83;;;;;;;6.23;87.36;99238.91;4925755;29;20048;-81
2022/03/31 08:28:31;;;;;;;;;;;;;;;6.19;86.24;99245.41;4924018;29;20056;-81
2022/03/31 08:30:58;;;;;;;33.45;19.52;;;;;;;6.13;87.10;99251.28;4923740;29;20360;-81
2022/03/31 08:33:25;;;;;;;36.17;19.98;;;;;;;6.04;87.52;99248.81;4924029;29;20143;-81
2022/03/31 08:35:52;;;;;;;31.13;20.08;;;;;;;5.99;88.10;99244.09;4923656;29;20086;-80
2022/03/31 08:38:18;;;;;;;30.25;18.27;;;;;;;5.95;87.49;99256.59;4923316;29;20143;-80
2022/03/31 08:40:46;;;;;;;33.80;19.80;;;;;;;6.05;87.66;99250.44;4923883;29;20052;-80
2022/03/31 08:43:16;;;;;;;31.55;18.80;;;;;;;6.04;86.37;99260.03;4930451;29;20066;-80
2022/03/31 08:45:43;;;;;;;27.27;18.00;;;;;;;6.01;86.66;99260.34;4936779;29;20076;-80
2022/03/31 08:48:11;;;;;;;29.42;18.55;;;;;;;6.07;87.22;99254.50;4923400;29;20094;-80
2022/03/31 08:50:38;;;;;;;36.15;19.42;;;;;;;6.14;87.72;99258.09;4921437;29;20381;-81
2022/03/31 08:53:05;;;;;;;29.80;18.10;;;;;;;6.19;85.97;99258.38;4917136;29;20135;-80
2022/03/31 08:55:32;;;;;;;34.42;19.75;;;;;;;6.16;87.30;99252.69;4911009;29;20048;-80
2022/03/31 08:58:01;;;;;;;27.90;18.83;;;;;;;6.13;86.33;99258.25;4909026;29;20063;-79
2022/03/31 09:00:28;;;;;;;31.45;19.42;;;;;;;6.28;85.87;99262.63;4913830;29;20076;-80
2022/03/31 09:03:00;;;;;;;31.35;19.15;;;;;;;6.33;86.55;99264.75;4910683;29;20052;-80
2022/03/31 09:05:28;;;;;;;29.98;18.55;;;;;;;6.51;86.46;99270.59;4911397;29;20523;-81
2022/03/31 09:07:57;;;;;;;31.08;18.35;;;;;;;6.50;86.85;99258.56;4901182;29;20056;-80
2022/03/31 09:10:33;;;;;;;33.53;18.67;;;;;;;6.22;84.58;99270.25;4913426;29;20131;-80
2022/03/31 09:13:03;;;;;;;28.45;17.63;;;;;;;6.21;86.01;99259.03;4919827;29;20048;-81
2022/03/31 09:15:31;;;;;;;27.52;17.30;;;;;;;6.08;83.34;99270.91;4918330;29;20070;-81
2022/03/31 09:17:59;;;;;;;28.05;17.00;;;;;;;6.06;84.25;99272.84;4917983;29;20056;-81
2022/03/31 09:20:36;;;;;;;28.17;17.83;;;;;;;6.12;84.53;99257.44;4926380;29;20115;-81
2022/03/31 09:23:03;;;;;;;30.60;19.35;;;;;;;6.50;84.67;99270.75;4924351;29;20133;-81
2022/03/31 09:25:32;;;;;;;29.35;17.27;;;;;;;6.38;84.25;99272.03;4921323;29;20078;-81
2022/03/31 09:28:01;;;;;;;30.13;17.88;;;;;;;6.67;83.35;99272.34;4921708;29;20174;-80
2022/03/31 09:30:31;;;;;;;26.67;17.10;;;;;;;6.54;83.41;99264.25;4925045;29;20090;-81
2022/03/31 09:33:02;;;;;;;28.40;17.45;;;;;;;6.14;83.25;99263.28;4926310;29;20060;-81
2022/03/31 09:35:29;;;;;;;27.65;18.10;;;;;;;6.19;84.12;99268.78;4927678;29;20055;-81
2022/03/31 09:37:55;;;;;;;29.42;18.33;;;;;;;6.11;84.60;99261.00;4920168;29;20135;-81
2022/03/31 09:40:22;;;;;;;27.20;17.20;;;;;;;6.25;84.13;99262.94;4918937;29;20032;-81
2022/03/31 09:42:59;;;;;;;30.25;18.27;;;;;;;6.41;85.18;99262.16;4919606;29;20533;-81
2022/03/31 09:45:37;;;;;;;33.22;18.70;;;;;;;6.48;85.93;99262.31;4917640;29;20055;-82
2022/03/31 09:48:08;;;;;;;29.67;17.42;;;;;;;6.52;84.20;99277.41;4913133;29;20553;-83
2022/03/31 09:50:36;;;;;;;32.42;18.52;;;;;;;6.54;84.67;99261.66;4914631;29;20048;-81
2022/03/31 09:53:03;;;;;;;29.35;18.52;;;;;;;6.55;84.10;99260.69;4919744;29;20067;-83
2022/03/31 09:55:30;;;;;;;30.15;17.85;;;;;;;6.72;85.79;99267.47;4921046;29;20083;-82
2022/03/31 09:57:58;;;;;;;29.02;17.95;;;;;;;6.75;82.45;99264.56;4920498;29;20052;-82
2022/03/31 10:00:25;;;;;;;30.48;18.17;;;;;;;6.30;85.05;99260.69;4919468;29;20087;-82
2022/03/31 10:02:52;;;;;;;30.95;18.02;;;;;;;6.56;85.52;99264.91;4918705;29;20052;-83
2022/03/31 10:05:22;;;;;;;30.88;19.70;;;;;;;6.64;85.20;99268.28;4919934;29;20056;-82
2022/03/31 10:07:52;;;;;;;30.30;18.15;;;;;;;6.51;86.61;99272.38;4920867;29;20072;-81
2022/03/31 10:10:19;;;;;;;30.35;19.20;;;;;;;6.63;84.36;99274.47;4919821;29;20474;-81
2022/03/31 10:12:58;;;;;;;28.70;18.23;;;;;;;6.63;84.56;99265.84;4919665;29;20130;-82
2022/03/31 10:15:30;;;;;;;32.35;18.98;;;;;;;6.46;85.46;99274.66;4917913;29;20500;-81
2022/03/31 10:17:58;;;;;;;33.45;19.45;;;;;;;6.65;84.80;99263.91;4921602;29;20056;-81
2022/03/31 10:20:26;;;;;;;27.83;18.20;;;;;;;6.71;84.85;99267.63;4918222;29;20050;-81
2022/03/31 10:25:42;;;;;;;32.35;18.33;;;;;;;6.46;84.74;99269.47;4919759;29;20079;-81
2022/03/31 10:28:11;;;;;;;30.73;18.70;;;;;;;6.45;84.31;99267.84;4920354;29;20050;-83
2022/03/31 10:30:38;;;;;;;29.60;19.02;;;;;;;6.56;84.85;99267.50;4924733;29;20315;-82
2022/03/31 10:33:07;;;;;;;28.52;18.52;;;;;;;6.45;85.42;99260.03;4924011;29;20055;-81
2022/03/31 10:35:37;;;;;;;30.67;19.00;;;;;;;6.66;83.91;99262.94;4918005;29;20044;-81
2022/03/31 10:38:15;;;;;;;31.60;19.55;;;;;;;6.53;84.03;99255.66;4918964;29;20090;-81
2022/03/31 10:40:49;;;;;;;33.95;18.98;;;;;;;6.75;83.03;99255.94;4912735;29;20100;-82
2022/03/31 10:43:20;;;;;;;33.38;19.88;;;;;;;6.80;82.84;99251.06;4915296;29;20584;-82
2022/03/31 10:45:47;;;;;;;30.95;19.83;;;;;;;6.94;84.60;99260.78;4926143;29;20048;-82
2022/03/31 10:48:22;;;;;;;28.55;18.67;;;;;;;7.04;81.40;99258.81;4916754;29;20044;-82
2022/03/31 10:51:11;;;;;;;28.67;17.27;;;;;;;6.93;81.74;99251.38;4917665;29;20479;-83
2022/03/31 10:53:42;;;;;;;28.42;17.63;;;;;;;7.06;81.30;99241.25;4920111;29;20060;-83
2022/03/31 10:56:19;;;;;;;30.45;18.95;;;;;;;7.27;82.10;99246.69;4924052;29;20076;-83
2022/03/31 10:58:46;;;;;;;33.65;18.85;;;;;;;7.07;83.65;99252.47;4923301;29;20166;-83
2022/03/31 11:01:14;;;;;;;27.98;18.80;;;;;;;7.11;83.50;99243.34;4924340;29;20521;-82
2022/03/31 11:03:41;;;;;;;27.23;17.55;;;;;;;7.16;83.33;99248.84;4924622;29;20067;-82
2022/03/31 11:06:09;;;;;;;26.67;18.30;;;;;;;7.05;82.74;99255.25;4923429;29;20103;-83
2022/03/31 11:08:44;;;;;;;28.23;18.20;;;;;;;7.12;83.80;99248.38;4924225;29;20067;-83
2022/03/31 11:11:19;;;;;;;30.58;18.52;;;;;;;7.01;82.45;99250.53;4922260;29;20056;-82
2022/03/31 11:14:00;;;;;;;;;;;;;;;;;;;;;
2022/03/31 11:16:37;;;;;;;28.90;17.80;;;;;;;6.93;82.74;99236.56;4932988;29;20080;-82
2022/03/31 11:19:19;;;;;;;28.15;18.30;;;;;;;6.92;82.79;99232.34;4927813;29;20483;-83
2022/03/31 11:22:03;;;;;;;27.95;17.73;;;;;;;6.86;83.30;99227.81;4926732;29;20080;-83
2022/03/31 11:24:30;;;;;;;28.77;18.15;;;;;;;6.95;83.94;99221.63;4928183;29;20056;-83
2022/03/31 11:27:08;;;;;;;31.00;18.55;;;;;;;6.98;82.73;99225.66;4927073;29;20052;-84
2022/03/31 11:29:35;;;;;;;30.60;18.23;;;;;;;6.90;85.63;99236.91;4924439;29;20132;-83
2022/03/31 11:32:02;;;;;;;31.73;19.42;;;;;;;6.92;83.96;99232.34;4923721;29;20126;-83
2022/03/31 11:34:29;;;;;;;31.35;21.27;;;;;;;6.88;84.65;99225.84;4925051;29;20160;-84
2022/03/31 11:36:57;;;;;;;31.10;18.30;;;;;;;7.13;83.69;99225.75;4925947;29;20063;-83
2022/03/31 11:39:28;;;;;;;28.10;18.27;;;;;;;7.39;81.33;99225.50;4923249;29;20056;-83
2022/03/31 11:41:55;;;;;;;29.45;18.60;;;;;;;7.48;85.37;99230.53;4924540;29;20059;-84
2022/03/31 11:44:24;;;;;;;29.52;19.25;;;;;;;7.65;84.25;99236.44;4926931;29;20055;-84
2022/03/31 12:36:34;;;;;;;33.10;20.48;;;;;;;6.61;88.89;99206.28;4914607;29;20072;-82
2022/03/31 12:46:31;;;;;;;26.67;16.75;;;;;;;6.63;87.95;99213.88;4825589;29;20054;-84
2022/03/31 15:01:33;;;;;;;25.27;17.25;;;;;;;5.42;92.30;99199.84;4828736;29;20054;-85
2022/03/31 15:04:49;;;;;;;28.52;17.65;;;;;;;5.43;91.64;99193.69;4913175;29;20049;-82
2022/03/31 15:28:21;;;;;;;19.17;13.18;;;;;;;5.36;91.92;99202.25;4849884;29;20057;-85
2022/03/31 15:31:03;;;;;;;17.50;12.10;;;;;;;5.23;90.84;99202.66;4855024;29;20058;-82
2022/03/31 15:37:50;;;;;;;20.63;14.00;;;;;;;5.32;92.64;99212.94;4858772;29;20053;-84
2022/03/31 15:40:28;;;;;;;24.63;15.20;;;;;;;5.43;93.75;99204.03;4841959;29;20050;-84
2022/03/31 15:43:17;;;;;;;20.38;13.88;;;;;;;5.18;92.31;99207.53;4908150;29;20052;-84
2022/03/31 15:45:53;;;;;;;19.83;15.07;;;;;;;5.10;92.20;99210.09;4916798;29;20044;-83
2022/03/31 15:48:27;;;;;;;18.88;13.57;;;;;;;5.17;92.93;99205.91;4988389;23;20080;-83
2022/03/31 15:51:30;;;;;;;16.48;12.93;;;;;;;5.33;93.87;99219.75;4944844;29;20083;-82
2022/03/31 15:54:01;;;;;;;17.33;13.45;;;;;;;5.11;92.38;99203.94;4907272;29;20075;-82
2022/03/31 15:56:52;;;;;;;20.27;13.63;;;;;;;5.18;92.95;99203.16;4918981;29;20104;-83
2022/03/31 15:59:24;;;;;;;16.95;13.18;;;;;;;5.29;92.31;99231.41;4889467;29;20045;-84
2022/03/31 16:01:51;;;;;;;18.27;12.97;;;;;;;5.18;92.14;99216.13;4894928;29;20055;-82
2022/03/31 16:04:23;;;;;;;17.50;12.65;;;;;;;5.25;92.02;99219.69;4895919;29;20403;-83
2022/03/31 16:06:54;;;;;;;16.98;13.90;;;;;;;5.23;91.48;99231.19;4897026;29;20052;-86
2022/03/31 16:09:27;;;;;;;18.88;13.93;;;;;;;5.27;92.27;99224.72;4894932;29;20068;-81
2022/03/31 16:12:31;;;;;;;19.35;13.80;;;;;;;5.18;91.65;99223.09;4902938;29;20493;-81
2022/03/31 16:15:16;;;;;;;17.25;13.23;;;;;;;5.14;91.91;99221.78;4903553;29;20138;-83